Latest Weather Observations for Lochington

IDQ60801

Issued at 2:22 pm EST Sunday 17 February 2019 (issued every 10 minutes, with the page automatically refreshed every 10 minutes)

About weather observations | Map of weather stations | Latest weather observations for QLD | Other Formats
Station Details ID: 035139 Name: LOCHINGTON Lat: -23.94 Lon: 147.53 Height: 267.19 m
Data from the previous 72 hours. | See also: Recent months at Lochington
Date/Time
EST
Temp
°C
App
Temp
°C
Dew
Point
°C
Rel
Hum
%
Delta-T
°C
Wind Press
QNH
hPa
Press
MSL
hPa
Rain since
9am
mm
Dir  Spd
km/h
Gust
km/h
Spd
kts
Gust
kts
17/02:00pm 34.7 33.9 13.0 27 13.3 S 9 19 5 10 1010.5 1008.7 0.0
17/01:30pm 34.6 34.9 14.5 30 12.5 NNW 6 11 3 6 1011.0 1009.2 0.0
17/01:00pm 33.6 33.8 14.6 31 11.8 ESE 7 15 4 8 1011.7 1010.0 0.0
17/12:30pm 32.6 32.8 14.7 34 11.1 NE 7 17 4 9 1012.5 1010.7 0.0
17/12:00pm 32.1 32.3 14.7 35 10.8 E 7 17 4 9 1013.0 1011.2 0.0
17/11:30am 31.5 31.6 15.5 38 10.0 ENE 9 20 5 11 1013.5 1011.7 0.0
17/11:00am 31.0 30.8 15.8 40 9.5 NNE 11 17 6 9 1014.1 1012.3 0.0
17/10:30am 29.7 29.5 15.8 43 8.7 ENE 11 19 6 10 1014.7 1013.0 0.0
17/10:00am 29.3 29.4 16.5 46 8.1 ENE 11 20 6 11 1014.9 1013.2 0.0
17/09:30am 27.7 27.7 16.3 49 7.1 NE 11 20 6 11 1015.2 1013.5 0.0
17/09:00am 27.7 27.1 16.6 50 7.0 E 15 22 8 12 1015.4 1013.7 0.0
17/08:30am 26.2 26.2 17.3 58 5.6 NE 13 22 7 12 1015.3 1013.6 0.0
17/08:00am 25.5 25.0 17.7 62 4.9 NE 17 24 9 13 1015.3 1013.6 0.0
17/07:30am 24.4 23.3 17.4 65 4.4 NE 19 24 10 13 1015.0 1013.3 0.0
17/07:00am 24.0 24.5 17.5 67 4.1 ENE 11 17 6 9 1014.6 1012.9 0.0
17/06:30am 22.7 24.3 17.8 74 3.1 ENE 6 9 3 5 1014.3 1012.5 0.0
17/06:00am 22.4 23.9 18.0 76 2.8 ENE 7 9 4 5 1013.7 1011.9 0.0
17/05:30am 23.0 24.9 19.0 78 2.6 NE 7 13 4 7 1013.3 1011.5 0.0
17/05:00am 23.6 24.3 18.9 75 3.0 NE 13 19 7 10 1013.0 1011.2 0.0
17/04:30am 24.0 24.8 19.1 74 3.2 NE 13 24 7 13 1012.8 1011.0 0.0
17/04:00am 24.4 24.9 19.2 73 3.4 NE 15 20 8 11 1012.7 1010.9 0.0
17/03:30am 24.5 25.6 19.6 74 3.2 NE 13 19 7 10 1012.6 1010.8 0.0
17/03:00am 24.4 24.7 19.5 74 3.2 NE 17 30 9 16 1012.5 1010.7 0.0
17/02:30am 24.7 25.3 19.5 73 3.4 NE 15 22 8 12 1012.4 1010.6 0.0
17/02:00am 25.1 25.4 19.5 71 3.6 NE 17 28 9 15 1012.5 1010.7 0.0
17/01:30am 26.0 26.0 18.2 62 5.0 NE 15 24 8 13 1012.7 1010.9 0.0
17/01:00am 27.0 26.3 15.4 49 7.1 NE 13 22 7 12 1012.8 1011.0 0.0
17/12:30am 27.9 26.6 13.8 42 8.5 E 13 19 7 10 1012.7 1010.9 0.0
17/12:00am 28.4 30.4 17.9 53 6.7 SW 4 11 2 6 1012.9 1011.1 0.0
 
Date/Time
EST
Temp
°C
App
Temp
°C
Dew
Point
°C
Rel
Hum
%
Delta-T
°C
Wind Press
QNH
hPa
Press
MSL
hPa
Rain since
9am
mm
Dir  Spd
km/h
Gust
km/h
Spd
kts
Gust
kts
16/11:30pm 28.8 30.3 18.0 52 6.9 S 7 15 4 8 1012.8 1011.0 0.0
16/11:00pm 29.1 30.0 17.6 50 7.4 S 9 15 5 8 1012.9 1011.1 0.0
16/10:30pm 29.4 30.2 17.2 47 7.8 SSW 9 15 5 8 1012.9 1011.1 0.0
16/10:00pm 28.8 30.3 14.6 42 8.7 CALM 0 0 0 0 1012.6 1010.8 0.0
16/09:30pm 29.4 31.0 14.8 41 9.0 CALM 0 0 0 0 1012.4 1010.6 0.0
16/09:00pm 29.9 31.1 14.8 39 9.3 SSW 2 4 1 2 1012.3 1010.5 0.0
16/08:30pm 30.7 31.9 14.8 38 9.8 NE 2 4 1 2 1011.8 1010.1 0.0
16/08:00pm 31.5 32.4 15.0 36 10.3 NE 4 6 2 3 1011.7 1010.0 0.0
16/07:30pm 31.8 32.5 14.4 34 10.7 NE 4 6 2 3 1011.4 1009.7 0.0
16/07:00pm 32.4 32.7 14.5 33 11.1 ENE 6 9 3 5 1010.9 1009.1 0.0
16/06:30pm 32.8 34.0 14.9 34 11.2 E 2 7 1 4 1010.7 1008.9 0.0
16/06:00pm 33.1 33.5 14.7 33 11.5 ESE 6 7 3 4 1010.6 1008.8 0.0
16/05:30pm 33.4 33.3 14.0 31 12.0 E 7 9 4 5 1010.4 1008.6 0.0
16/05:00pm 34.7 34.9 14.6 30 12.6 ENE 7 15 4 8 1010.4 1008.6 0.0
16/04:30pm 33.9 33.2 14.4 31 12.1 SE 11 17 6 9 1010.6 1008.8 0.0
16/04:00pm 33.9 33.8 13.4 29 12.6 SE 6 13 3 7 1011.0 1009.2 0.0
16/03:30pm 34.1 33.7 14.1 30 12.4 NNE 9 15 5 8 1011.2 1009.5 0.0
16/03:00pm 33.9 34.5 15.8 33 11.5 ESE 7 17 4 9 1011.6 1009.9 0.0
16/02:30pm 33.6 34.6 16.9 37 10.7 NE 7 17 4 9 1012.4 1010.6 0.0
16/02:00pm 32.3 32.7 16.2 38 10.2 E 9 19 5 10 1013.0 1011.2 0.0
16/01:30pm 33.7 35.3 17.8 38 10.4 SSE 6 15 3 8 1013.7 1011.9 0.0
16/01:00pm 31.4 31.7 16.9 41 9.3 SE 11 19 6 10 1014.4 1012.6 0.0
16/12:30pm 31.4 31.4 17.3 43 9.1 ESE 13 22 7 12 1015.0 1013.3 0.0
16/12:00pm 31.4 32.1 18.0 44 8.7 NE 11 20 6 11 1015.5 1013.8 0.0
16/11:30am 30.4 31.2 18.2 48 7.9 NE 11 24 6 13 1016.0 1014.3 0.0
16/11:00am 29.0 29.4 17.2 49 7.5 E 11 26 6 14 1016.6 1014.8 0.0
16/10:30am 29.4 30.3 18.5 52 7.1 ENE 11 20 6 11 1017.1 1015.3 0.0
16/10:00am 28.0 28.3 17.8 54 6.5 NNE 13 22 7 12 1017.3 1015.5 0.0
16/09:30am 27.4 27.8 18.1 57 6.0 NNE 13 22 7 12 1017.3 1015.5 0.0
16/09:00am 26.8 26.8 18.9 62 5.1 NNE 17 20 9 11 1017.2 1015.4 1.8
16/08:30am 25.6 25.9 18.8 66 4.4 NNE 15 20 8 11 1017.3 1015.5 1.8
16/08:00am 25.4 26.4 19.5 70 3.8 NNE 13 17 7 9 1017.2 1015.4 1.8
16/07:30am 24.7 26.7 20.0 75 3.1 NNE 9 13 5 7 1016.8 1015.0 1.8
16/07:00am 24.6 26.7 20.1 76 2.9 NNE 9 13 5 7 1016.7 1014.9 1.8
16/06:30am 24.3 26.6 19.8 76 2.9 NE 7 11 4 6 1016.4 1014.6 1.8
16/06:00am 24.2 25.8 19.9 77 2.8 NNE 11 19 6 10 1015.8 1014.1 1.8
16/05:30am 24.1 26.5 20.0 78 2.7 NE 7 11 4 6 1015.5 1013.8 1.8
16/05:00am 24.3 26.3 20.0 77 2.8 NE 9 15 5 8 1015.2 1013.5 1.8
16/04:30am 24.4 26.4 20.7 80 2.4 NE 11 15 6 8 1015.0 1013.3 1.8
16/04:00am 24.3 27.5 21.6 85 1.8 NE 7 11 4 6 1014.8 1013.1 1.8
16/03:30am 24.5 27.8 21.4 83 2.1 NE 6 9 3 5 1014.8 1013.1 1.8
16/03:00am 23.9 27.6 21.4 86 1.7 E 4 4 2 2 1014.7 1013.0 1.8
16/02:30am 23.6 27.0 20.9 85 1.8 NE 4 6 2 3 1014.3 1012.5 1.8
16/02:00am 23.6 26.2 20.5 83 2.0 ENE 7 9 4 5 1014.2 1012.4 1.8
16/01:30am 23.8 26.4 20.1 80 2.4 ENE 6 9 3 5 1014.1 1012.3 1.8
16/01:00am 23.7 26.4 20.6 83 2.0 NE 7 9 4 5 1014.3 1012.5 1.8
16/12:30am 23.6 25.9 19.9 80 2.4 NE 7 11 4 6 1014.4 1012.6 1.8
16/12:00am 23.9 25.8 19.8 78 2.7 ENE 9 15 5 8 1014.7 1013.0 1.8
 
Date/Time
EST
Temp
°C
App
Temp
°C
Dew
Point
°C
Rel
Hum
%
Delta-T
°C
Wind Press
QNH
hPa
Press
MSL
hPa
Rain since
9am
mm
Dir  Spd
km/h
Gust
km/h
Spd
kts
Gust
kts
15/11:30pm 23.8 25.7 18.9 74 3.1 E 7 9 4 5 1015.1 1013.4 1.8
15/11:00pm 24.6 26.7 19.0 71 3.6 E 6 7 3 4 1015.3 1013.6 1.6
15/10:30pm 25.4 28.4 19.3 69 4.0 SW 2 6 1 3 1015.3 1013.6 1.4
15/10:00pm 25.3 27.2 18.5 66 4.4 WNW 6 7 3 4 1015.0 1013.3 1.4
15/09:30pm 25.8 26.9 18.0 62 5.0 SW 9 15 5 8 1014.8 1013.1 1.4
15/09:00pm 25.6 27.1 17.5 61 5.1 N 6 9 3 5 1014.1 1012.3 1.4
15/08:30pm 24.8 23.0 17.8 65 4.4 ENE 24 32 13 17 1013.5 1011.7 1.4
15/08:00pm 24.6 24.1 17.8 66 4.3 ESE 17 26 9 14 1014.0 1012.2 0.4
15/07:30pm 25.7 23.5 17.9 62 5.0 E 26 37 14 20 1013.6 1011.8 0.0
15/07:00pm 29.3 27.8 16.8 47 7.9 E 20 30 11 16 1012.9 1011.1 0.0
15/06:30pm 30.8 29.8 15.6 39 9.5 ESE 15 28 8 15 1012.3 1010.5 0.0
15/06:00pm 31.0 29.4 15.0 38 9.9 NNE 17 24 9 13 1011.2 1009.5 0.0
15/05:30pm 31.1 27.4 15.9 40 9.6 N 30 39 16 21 1011.1 1009.3 0.0
15/05:00pm 31.2 27.7 15.6 39 9.8 NE 28 43 15 23 1011.1 1009.3 0.0
15/04:30pm 33.4 30.7 13.5 30 12.2 E 20 33 11 18 1011.1 1009.3 0.0
15/04:00pm 37.1 37.0 13.8 25 14.5 NNW 7 17 4 9 1010.7 1008.9 0.0
15/03:30pm 35.5 34.6 13.6 26 13.5 NE 11 20 6 11 1011.1 1009.3 0.0
15/03:00pm 35.6 35.1 14.8 28 13.1 NE 11 17 6 9 1011.4 1009.7 0.0
15/02:30pm 36.6 35.8 15.1 27 13.6 ENE 13 20 7 11 1011.8 1010.1 0.0
15/02:00pm 36.5 36.1 16.1 29 13.1 NE 13 24 7 13 1012.4 1010.6 0.0
15/01:30pm 36.1 36.1 16.3 31 12.7 ENE 11 24 6 13 1012.9 1011.1 0.0
15/01:00pm 35.1 34.4 16.4 32 12.0 ENE 15 24 8 13 1013.2 1011.4 0.0
15/12:30pm 35.6 35.6 17.3 33 11.9 ENE 13 26 7 14 1013.8 1012.0 0.0
15/12:00pm 34.3 33.5 17.1 36 11.1 ENE 17 32 9 17 1014.4 1012.6 0.0
15/11:30am 33.6 32.5 17.3 37 10.5 NE 19 30 10 16 1014.9 1013.2 0.0
15/11:00am 32.8 32.3 17.8 40 9.7 NE 17 26 9 14 1015.5 1013.8 0.0
15/10:30am 32.4 31.9 17.8 41 9.5 ENE 17 32 9 17 1015.8 1014.1 0.0
15/10:00am 31.9 30.4 18.5 45 8.8 ENE 24 37 13 20 1015.9 1014.2 0.0
15/09:30am 30.1 30.0 19.5 53 7.0 ENE 19 35 10 19 1015.9 1014.2 0.0
15/09:00am 28.7 28.6 19.6 58 6.0 NE 19 28 10 15 1015.7 1014.0 0.0
15/08:30am 28.5 29.0 20.0 60 5.6 ENE 17 26 9 14 1015.6 1013.9 0.0
15/08:00am 28.0 28.8 20.6 64 4.9 ENE 17 24 9 13 1015.5 1013.8 0.0
15/07:30am 27.3 28.0 20.4 66 4.6 NE 17 24 9 13 1015.1 1013.4 0.0
15/07:00am 26.6 28.0 20.4 69 4.1 ENE 13 19 7 10 1015.0 1013.3 0.0
15/06:30am 25.9 27.6 20.2 71 3.8 ENE 11 15 6 8 1014.8 1013.1 0.0
15/06:00am 25.7 27.3 20.0 71 3.7 ENE 11 17 6 9 1014.5 1012.8 0.0
15/05:30am 25.8 27.4 19.9 70 3.9 ENE 11 17 6 9 1014.2 1012.4 0.0
15/05:00am 26.1 26.8 19.7 68 4.2 NE 15 22 8 12 1013.9 1012.1 0.0
15/04:30am 26.2 26.9 19.6 67 4.3 NE 15 22 8 12 1013.7 1011.9 0.0
15/04:00am 26.3 26.1 19.4 66 4.5 NE 19 33 10 18 1013.4 1011.6 0.0
15/03:30am 26.7 26.4 19.6 65 4.6 NE 20 39 11 21 1013.1 1011.3 0.0
15/03:00am 26.7 26.9 19.3 64 4.8 ENE 17 26 9 14 1013.0 1011.2 0.0
15/02:30am 26.9 26.5 19.0 62 5.1 NE 19 26 10 14 1013.0 1011.2 0.0
15/02:00am 27.3 26.7 18.9 60 5.5 ENE 20 33 11 18 1012.8 1011.0 0.0
15/01:30am 27.9 27.6 18.3 56 6.2 NE 17 26 9 14 1012.7 1010.9 0.0
15/01:00am 28.3 29.1 19.0 57 6.1 ENE 13 20 7 11 1012.6 1010.8 0.0
15/12:30am 28.7 29.1 19.1 56 6.3 ENE 15 24 8 13 1012.7 1010.9 0.0
15/12:00am 29.2 29.9 18.9 53 6.7 ENE 13 17 7 9 1012.7 1010.9 0.0
 
Date/Time
EST
Temp
°C
App
Temp
°C
Dew
Point
°C
Rel
Hum
%
Delta-T
°C
Wind Press
QNH
hPa
Press
MSL
hPa
Rain since
9am
mm
Dir  Spd
km/h
Gust
km/h
Spd
kts
Gust
kts
14/11:30pm 29.5 30.3 17.3 47 7.8 E 9 15 5 8 1012.7 1010.9 0.0
14/11:00pm 30.4 31.4 17.8 46 8.1 ENE 9 19 5 10 1012.3 1010.5 0.0
14/10:30pm 30.9 29.7 18.3 47 8.2 ENE 22 35 12 19 1011.5 1009.8 0.0
14/10:00pm 31.8 29.4 2.0 15 15.1 ESE 4 7 2 4 1010.3 1008.5 0.0
14/09:30pm 32.0 28.8 3.1 16 14.9 ESE 9 11 5 6 1010.2 1008.4 0.0
14/09:00pm 33.6 30.5 3.4 15 15.8 E 9 13 5 7 1010.0 1008.2 0.0
14/08:30pm 33.6 31.0 3.4 15 15.8 E 6 6 3 3 1009.6 1007.8 0.0
14/08:00pm 34.1 31.4 2.8 14 16.3 E 6 7 3 4 1009.4 1007.6 0.0
14/07:30pm 34.3 32.0 3.0 14 16.3 SE 4 6 2 3 1008.9 1007.1 0.0
14/07:00pm 35.6 33.9 1.8 12 17.5 CALM 0 0 0 0 1008.4 1006.6 0.0
14/06:30pm 37.4 35.7 2.0 11 18.5 CALM 0 0 0 0 1007.9 1006.2 0.0
14/06:00pm 38.0 35.4 1.1 10 19.1 E 4 6 2 3 1007.5 1005.7 0.0
14/05:30pm 38.6 36.1 1.6 10 19.4 E 4 7 2 4 1007.3 1005.5 0.0
14/05:00pm 38.9 36.1 1.8 10 19.6 NW 6 15 3 8 1007.2 1005.4 0.0
14/04:30pm 38.8 35.4 1.7 10 19.5 SSW 9 15 5 8 1007.1 1005.3 0.0
14/04:00pm 39.4 36.6 2.2 10 19.8 SSE 6 9 3 5 1007.2 1005.4 0.0
14/03:30pm 39.3 36.3 2.1 10 19.7 N 7 17 4 9 1007.3 1005.5 0.0
14/03:00pm 39.5 36.2 2.2 10 19.8 WSW 9 22 5 12 1007.5 1005.7 0.0
14/02:30pm 38.5 35.0 1.5 10 19.3 S 9 17 5 9 1007.9 1006.2 0.0

Other Formats:

Comma delimited format used in spreadsheet applications
http://www.bom.gov.au/fwo/IDQ60801/IDQ60801.94399.axf

JavaScript Object Notation format (JSON) in row-major order
http://www.bom.gov.au/fwo/IDQ60801/IDQ60801.94399.json